Mustang, Oklahoma
Current Conditions -  °F | °C
As of 9:13 PM on Thursday 18 Dec 2014 (Local Time) from KOKC Reporting Station
Haze Haze  
Wind Chill: 35°   Ceiling: 400
Heat Index: 41°   Visibility: 4mi
Dew Point: 37°   Wind: 10mph
Humidity: 87%   Direction: 50°NE
Pressure: 30.19"   Gusts: NA
Location:  35.39°N, 97.73°W
Report Text: KOKC 190313Z 05009KT 4SM BR OVC004 05/03 A3019 RMK AO2
Loading
Personal Weather Stations






























Interactive Weather Map New forecast layout! Learn more

10-Day Weather Forecast

Advertisements
Track Severe Weather on mobile